Time;durP1;ratioP1;P1;durP2;ratioP2;P2;SDS_P1;SDS_P2;PMS_P1;PMS_P2;Temp;Humidity;BMP_temperature;BMP_pressure;BME280_temperature;BME280_humidity;BME280_pressure;Samples;Min_cycle;Max_cycle;Signal;HPM_P1;HPM_P2
2023/05/05 00:00:53;;;;;;;;;;;12.40;67.40;;;;;;4992042;28;88041;-39
2023/05/05 00:03:22;;;;;;;;;;;12.40;67.40;;;;;;4994939;28;87143;-41
2023/05/05 00:05:48;;;;;;;;;;;12.40;67.40;;;;;;4991800;28;88467;-41
2023/05/05 00:08:14;;;;;;;;;;;12.40;67.40;;;;;;4992693;28;87930;-40
2023/05/05 00:10:41;;;;;;;;;;;12.30;67.40;;;;;;4993810;28;87249;-39
2023/05/05 00:13:07;;;;;;;;;;;12.40;67.50;;;;;;4991670;28;88728;-40
2023/05/05 00:15:32;;;;;;;;;;;12.30;67.40;;;;;;4994000;28;87314;-39
2023/05/05 00:17:58;;;;;;;;;;;12.40;67.40;;;;;;4991546;28;87094;-39
2023/05/05 00:20:23;;;;;;;;;;;12.40;67.40;;;;;;4995356;28;87117;-40
2023/05/05 00:22:49;;;;;;;;;;;12.30;67.40;;;;;;4993031;28;86480;-40
2023/05/05 00:25:14;;;;;;;;;;;12.30;67.40;;;;;;4992794;28;87533;-39
2023/05/05 00:27:40;;;;;;;;;;;12.30;67.40;;;;;;4994015;28;87262;-41
2023/05/05 00:30:06;;;;;;;;;;;12.30;67.40;;;;;;4990502;28;87983;-39
2023/05/05 00:32:31;;;;;;;;;;;12.30;67.40;;;;;;4994365;28;88653;-41
2023/05/05 00:34:57;;;;;;;;;;;12.30;67.40;;;;;;4991464;28;89569;-40
2023/05/05 00:37:22;;;;;;;;;;;12.30;67.40;;;;;;4992929;28;87022;-39
2023/05/05 00:39:48;;;;;;;;;;;12.30;67.50;;;;;;4992676;28;88929;-39
2023/05/05 00:42:13;;;;;;;;;;;12.30;67.50;;;;;;4994159;28;88966;-41
2023/05/05 00:44:40;;;;;;;;;;;12.20;67.50;;;;;;4993727;28;88866;-40
2023/05/05 00:47:09;;;;;;;;;;;12.30;67.40;;;;;;4990877;28;88858;-40
2023/05/05 00:49:35;;;;;;;;;;;12.30;67.50;;;;;;4992862;28;87123;-39
2023/05/05 00:52:01;;;;;;;;;;;12.20;67.40;;;;;;4992602;28;88921;-40
2023/05/05 00:54:27;;;;;;;;;;;12.20;67.40;;;;;;4990429;28;91190;-40
2023/05/05 00:56:53;;;;;;;;;;;12.20;67.40;;;;;;4993743;28;87111;-41
2023/05/05 00:59:18;;;;;;;;;;;12.20;67.40;;;;;;4990816;28;87494;-40
2023/05/05 01:01:44;;;;;;;;;;;12.20;67.40;;;;;;4992907;28;89725;-39
2023/05/05 01:04:10;;;;;;;;;;;12.20;67.40;;;;;;4994452;28;87109;-41
2023/05/05 01:06:43;;;;;;;;;;;12.20;67.40;;;;;;4991674;28;89475;-40
2023/05/05 01:09:22;;;;;;;;;;;12.20;67.40;;;;;;4993797;28;87150;-40
2023/05/05 01:11:51;;;;;;;;;;;12.20;67.40;;;;;;4993223;28;87399;-39
2023/05/05 01:14:19;;;;;;;;;;;12.20;67.40;;;;;;4990336;28;88169;-40
2023/05/05 01:16:53;;;;;;;;;;;12.10;67.30;;;;;;4990516;28;87014;-41
2023/05/05 01:19:42;;;;;;;;;;;12.20;67.40;;;;;;4991308;28;87990;-41
2023/05/05 01:22:10;;;;;;;;;;;12.10;67.40;;;;;;4989910;28;89505;-41
2023/05/05 01:24:38;;;;;;;;;;;12.10;67.30;;;;;;4993934;28;87549;-39
2023/05/05 01:27:24;;;;;;;;;;;12.20;67.40;;;;;;4993268;28;88811;-39
2023/05/05 01:30:09;;;;;;;;;;;12.10;67.30;;;;;;4993212;28;87202;-39
2023/05/05 01:32:37;;;;;;;;;;;12.10;67.30;;;;;;4999248;28;88691;-40
2023/05/05 01:35:28;;;;;;;;;;;12.10;67.30;;;;;;4996403;28;88582;-40
2023/05/05 01:37:58;;;;;;;;;;;12.10;67.30;;;;;;4996597;28;86202;-40
2023/05/05 01:40:28;;;;;;;;;;;12.10;67.30;;;;;;4998828;28;88168;-40
2023/05/05 01:42:55;;;;;;;;;;;12.10;67.30;;;;;;4998779;28;88042;-40
2023/05/05 01:45:23;;;;;;;;;;;12.10;67.30;;;;;;4996315;28;88157;-40
2023/05/05 01:47:50;;;;;;;;;;;12.00;67.30;;;;;;4999436;28;89607;-40
2023/05/05 01:50:16;;;;;;;;;;;12.00;67.30;;;;;;4998775;28;87609;-39
2023/05/05 01:52:43;;;;;;;;;;;12.00;67.30;;;;;;4998683;28;87450;-40
2023/05/05 01:55:09;;;;;;;;;;;12.00;67.30;;;;;;5000559;28;87724;-40
2023/05/05 01:57:36;;;;;;;;;;;12.00;67.40;;;;;;5000503;28;87851;-40
2023/05/05 02:00:03;;;;;;;;;;;12.00;67.30;;;;;;4996284;28;88347;-40
2023/05/05 02:02:29;;;;;;;;;;;12.00;67.30;;;;;;4999452;28;88435;-40
2023/05/05 02:04:55;;;;;;;;;;;12.00;67.30;;;;;;5000259;28;87069;-41
2023/05/05 02:07:22;;;;;;;;;;;12.00;67.30;;;;;;4998891;28;87054;-41
2023/05/05 02:09:48;;;;;;;;;;;12.00;67.20;;;;;;4998588;28;90353;-40
2023/05/05 02:12:14;;;;;;;;;;;11.90;67.20;;;;;;5000013;28;88432;-40
2023/05/05 02:14:41;;;;;;;;;;;11.90;67.30;;;;;;4996317;28;87152;-41
2023/05/05 02:17:07;;;;;;;;;;;11.90;67.30;;;;;;4998759;28;87196;-40
2023/05/05 02:19:37;;;;;;;;;;;11.90;67.30;;;;;;4998256;28;87486;-39
2023/05/05 02:22:02;;;;;;;;;;;11.90;67.20;;;;;;4995897;28;88150;-39
2023/05/05 02:24:28;;;;;;;;;;;11.90;67.20;;;;;;4999960;28;87186;-39
2023/05/05 02:26:55;;;;;;;;;;;11.90;67.20;;;;;;4997026;28;89425;-40
2023/05/05 02:29:23;;;;;;;;;;;11.90;67.20;;;;;;4997930;28;89565;-40
2023/05/05 02:31:52;;;;;;;;;;;11.90;67.20;;;;;;5001132;28;87074;-41
2023/05/05 02:34:26;;;;;;;;;;;11.90;67.20;;;;;;4999312;28;89471;-41
2023/05/05 02:36:53;;;;;;;;;;;11.90;67.20;;;;;;4997616;28;86929;-39
2023/05/05 02:39:23;;;;;;;;;;;11.80;67.20;;;;;;4997593;28;87628;-40
2023/05/05 02:41:50;;;;;;;;;;;11.80;67.30;;;;;;4998316;28;88207;-41
2023/05/05 02:44:15;;;;;;;;;;;11.80;67.20;;;;;;4992750;28;87053;-40
2023/05/05 02:46:41;;;;;;;;;;;11.80;67.10;;;;;;4995897;28;87659;-40
2023/05/05 02:49:07;;;;;;;;;;;11.80;67.20;;;;;;4994463;28;89359;-41
2023/05/05 02:51:32;;;;;;;;;;;11.80;67.10;;;;;;4995371;28;86471;-40
2023/05/05 02:53:58;;;;;;;;;;;11.80;67.10;;;;;;4996123;28;87839;-38
2023/05/05 02:56:24;;;;;;;;;;;11.80;67.20;;;;;;4995720;28;87086;-41
2023/05/05 02:58:58;;;;;;;;;;;11.80;67.20;;;;;;4991647;28;88711;-40
2023/05/05 03:01:26;;;;;;;;;;;11.80;67.20;;;;;;4993661;28;89590;-39
2023/05/05 03:03:58;;;;;;;;;;;11.80;67.10;;;;;;4994625;28;87150;-40
2023/05/05 03:06:26;;;;;;;;;;;11.70;67.20;;;;;;4992649;28;88983;-40
2023/05/05 03:08:51;;;;;;;;;;;11.80;67.10;;;;;;4994080;28;88328;-40
2023/05/05 03:11:43;;;;;;;;;;;11.70;67.10;;;;;;4994116;28;87176;-39
2023/05/05 03:14:10;;;;;;;;;;;11.70;67.10;;;;;;4994844;28;87132;-39
2023/05/05 03:16:36;;;;;;;;;;;11.70;67.20;;;;;;4991860;28;87435;-41
2023/05/05 03:19:03;;;;;;;;;;;11.70;67.20;;;;;;4995831;28;87949;-40
2023/05/05 03:21:29;;;;;;;;;;;11.70;67.10;;;;;;4995930;28;88421;-41
2023/05/05 03:23:54;;;;;;;;;;;11.70;67.20;;;;;;4993927;28;88054;-40
2023/05/05 03:26:20;;;;;;;;;;;11.70;67.10;;;;;;4994150;28;88597;-40
2023/05/05 03:28:45;;;;;;;;;;;11.70;67.20;;;;;;4992226;28;88412;-40
2023/05/05 03:31:11;;;;;;;;;;;11.60;67.20;;;;;;4992163;28;87057;-39
2023/05/05 03:33:37;;;;;;;;;;;11.60;67.20;;;;;;4992135;28;87523;-40
2023/05/05 03:36:02;;;;;;;;;;;11.60;67.10;;;;;;4997949;28;87699;-40
2023/05/05 03:38:28;;;;;;;;;;;11.70;67.20;;;;;;4991683;28;87699;-40
2023/05/05 03:40:54;;;;;;;;;;;11.60;67.20;;;;;;4993372;28;87568;-40
2023/05/05 03:43:19;;;;;;;;;;;11.60;67.40;;;;;;4993175;28;86983;-40
2023/05/05 03:45:45;;;;;;;;;;;11.60;67.30;;;;;;4994764;28;87276;-40
2023/05/05 03:48:10;;;;;;;;;;;11.60;67.20;;;;;;4990750;28;90481;-39
2023/05/05 03:50:36;;;;;;;;;;;11.60;67.20;;;;;;4991998;28;87094;-39
2023/05/05 03:53:02;;;;;;;;;;;11.60;67.20;;;;;;4994579;28;87134;-39
2023/05/05 03:55:27;;;;;;;;;;;11.60;67.20;;;;;;4992549;28;88027;-40
2023/05/05 03:57:53;;;;;;;;;;;11.60;67.20;;;;;;4996266;28;87116;-40
2023/05/05 04:00:18;;;;;;;;;;;11.60;67.20;;;;;;4993743;28;88227;-39
2023/05/05 04:02:44;;;;;;;;;;;11.60;67.20;;;;;;4991895;28;87127;-40
2023/05/05 04:05:09;;;;;;;;;;;11.50;67.20;;;;;;4995559;28;87571;-40
2023/05/05 04:07:35;;;;;;;;;;;11.50;67.10;;;;;;4990932;28;88030;-41
2023/05/05 04:10:00;;;;;;;;;;;11.60;67.10;;;;;;4992545;28;87349;-39
2023/05/05 04:12:26;;;;;;;;;;;11.50;67.10;;;;;;4992593;28;88040;-39
2023/05/05 04:14:51;;;;;;;;;;;11.50;67.10;;;;;;4992789;28;88302;-39
2023/05/05 04:17:17;;;;;;;;;;;11.50;67.20;;;;;;4992160;28;87087;-41
2023/05/05 04:19:42;;;;;;;;;;;11.50;67.20;;;;;;4997192;28;87889;-40
2023/05/05 04:22:08;;;;;;;;;;;11.50;67.80;;;;;;4991435;28;87068;-39
2023/05/05 04:24:34;;;;;;;;;;;11.50;67.20;;;;;;4993704;28;89183;-40
2023/05/05 04:27:00;;;;;;;;;;;11.40;67.10;;;;;;4991905;28;89450;-40
2023/05/05 04:29:25;;;;;;;;;;;11.50;67.20;;;;;;4992750;28;86335;-40
2023/05/05 04:31:51;;;;;;;;;;;11.50;67.20;;;;;;4993199;28;87464;-41
2023/05/05 04:34:16;;;;;;;;;;;11.50;67.20;;;;;;4994936;28;88186;-41
2023/05/05 04:36:42;;;;;;;;;;;11.40;67.20;;;;;;4990623;28;88324;-41
2023/05/05 04:39:07;;;;;;;;;;;11.50;67.30;;;;;;4994137;28;87558;-41
2023/05/05 04:41:33;;;;;;;;;;;11.50;67.20;;;;;;4995064;28;88428;-40
2023/05/05 04:43:58;;;;;;;;;;;11.40;67.30;;;;;;4992806;28;87312;-41
2023/05/05 04:46:24;;;;;;;;;;;11.40;67.10;;;;;;4994100;28;88279;-40
2023/05/05 04:48:50;;;;;;;;;;;11.50;67.10;;;;;;4993945;28;87184;-41
2023/05/05 04:51:15;;;;;;;;;;;11.50;67.70;;;;;;4991108;28;87460;-41
2023/05/05 04:53:41;;;;;;;;;;;11.40;67.10;;;;;;4991153;28;89155;-41
2023/05/05 04:56:06;;;;;;;;;;;11.50;67.20;;;;;;4993342;28;87114;-41
2023/05/05 04:58:32;;;;;;;;;;;11.50;67.20;;;;;;4992506;28;87395;-41
2023/05/05 05:00:57;;;;;;;;;;;11.50;67.10;;;;;;4991181;28;89387;-39
2023/05/05 05:03:23;;;;;;;;;;;11.50;67.10;;;;;;4996559;28;87124;-39
2023/05/05 05:05:48;;;;;;;;;;;11.50;67.20;;;;;;4990011;28;88034;-39
2023/05/05 05:08:14;;;;;;;;;;;11.50;67.30;;;;;;4990947;28;87035;-40
2023/05/05 05:10:40;;;;;;;;;;;11.50;67.40;;;;;;4993617;28;88719;-41
2023/05/05 05:13:05;;;;;;;;;;;11.40;67.40;;;;;;4991650;28;87375;-40
2023/05/05 05:15:31;;;;;;;;;;;11.40;67.40;;;;;;4991542;28;88313;-41
2023/05/05 05:17:56;;;;;;;;;;;11.50;67.60;;;;;;4993446;28;87675;-39
2023/05/05 05:20:22;;;;;;;;;;;11.40;67.50;;;;;;4990379;28;89408;-41
2023/05/05 05:22:48;;;;;;;;;;;11.40;67.60;;;;;;4993490;28;87235;-40
2023/05/05 05:25:13;;;;;;;;;;;11.40;67.60;;;;;;4992803;28;88635;-41
2023/05/05 05:27:40;;;;;;;;;;;11.40;67.60;;;;;;4993078;28;87189;-39
2023/05/05 05:30:06;;;;;;;;;;;11.40;67.70;;;;;;4992167;28;87508;-41
2023/05/05 05:32:31;;;;;;;;;;;11.40;67.70;;;;;;4991252;28;87286;-39
2023/05/05 05:34:57;;;;;;;;;;;11.40;67.80;;;;;;4993351;28;87010;-39
2023/05/05 05:37:22;;;;;;;;;;;11.40;67.70;;;;;;4990513;28;87463;-39
2023/05/05 05:39:51;;;;;;;;;;;11.40;67.80;;;;;;4993061;28;88105;-40
2023/05/05 05:42:16;;;;;;;;;;;11.40;67.80;;;;;;4991714;28;86464;-40
2023/05/05 05:44:42;;;;;;;;;;;11.40;67.80;;;;;;4992714;28;86988;-39
2023/05/05 05:47:07;;;;;;;;;;;11.40;67.90;;;;;;4990878;28;87198;-40
2023/05/05 05:49:33;;;;;;;;;;;11.40;67.90;;;;;;4992577;28;88456;-41
2023/05/05 05:51:58;;;;;;;;;;;11.40;68.00;;;;;;4989534;28;87343;-41
2023/05/05 05:54:24;;;;;;;;;;;11.40;68.10;;;;;;4993062;28;87083;-39
2023/05/05 05:56:50;;;;;;;;;;;11.40;68.00;;;;;;4991288;28;87451;-41
2023/05/05 05:59:15;;;;;;;;;;;11.40;68.20;;;;;;4991097;28;89294;-40
2023/05/05 06:01:41;;;;;;;;;;;11.40;68.40;;;;;;4992330;28;87200;-40
2023/05/05 06:04:06;;;;;;;;;;;11.40;68.30;;;;;;4990388;28;88642;-39
2023/05/05 06:06:32;;;;;;;;;;;11.30;68.30;;;;;;4996805;28;87608;-46
2023/05/05 06:08:57;;;;;;;;;;;11.30;68.30;;;;;;4993070;28;88099;-41
2023/05/05 06:11:23;;;;;;;;;;;11.30;68.30;;;;;;4993135;28;87994;-41
2023/05/05 06:13:48;;;;;;;;;;;11.40;68.20;;;;;;4990844;28;88047;-40
2023/05/05 06:16:14;;;;;;;;;;;11.40;68.10;;;;;;4992505;28;89531;-41
2023/05/05 06:18:39;;;;;;;;;;;11.40;68.20;;;;;;4992281;28;89996;-40
2023/05/05 06:21:05;;;;;;;;;;;11.40;68.30;;;;;;4995105;28;87549;-40
2023/05/05 06:23:31;;;;;;;;;;;11.30;68.40;;;;;;4992709;28;88984;-39
2023/05/05 06:25:56;;;;;;;;;;;11.30;68.50;;;;;;4994918;28;87945;-40
2023/05/05 06:28:22;;;;;;;;;;;11.30;68.70;;;;;;4996428;28;87150;-39
2023/05/05 06:30:47;;;;;;;;;;;11.30;68.60;;;;;;4995042;28;87912;-40
2023/05/05 06:33:13;;;;;;;;;;;11.30;68.50;;;;;;4995320;28;87109;-41
2023/05/05 06:35:38;;;;;;;;;;;11.30;68.60;;;;;;4993578;28;87349;-39
2023/05/05 06:38:04;;;;;;;;;;;11.30;68.70;;;;;;4995300;28;89004;-41
2023/05/05 06:40:30;;;;;;;;;;;11.30;68.40;;;;;;4993134;28;87077;-40
2023/05/05 06:42:56;;;;;;;;;;;11.30;68.40;;;;;;4995105;28;88541;-41
2023/05/05 06:45:21;;;;;;;;;;;11.30;68.40;;;;;;4994120;28;87919;-39
2023/05/05 06:47:47;;;;;;;;;;;11.30;68.50;;;;;;4993755;28;87137;-39
2023/05/05 06:50:13;;;;;;;;;;;11.30;68.40;;;;;;4998462;28;87664;-39
2023/05/05 06:52:39;;;;;;;;;;;11.40;68.30;;;;;;4995993;28;87186;-39
2023/05/05 06:55:05;;;;;;;;;;;11.40;68.30;;;;;;4993537;28;88626;-41
2023/05/05 06:57:31;;;;;;;;;;;11.40;68.40;;;;;;4994406;28;87575;-40
2023/05/05 06:59:56;;;;;;;;;;;11.40;68.30;;;;;;4993932;28;87489;-39
2023/05/05 07:02:22;;;;;;;;;;;11.40;68.50;;;;;;4992306;28;87973;-39
2023/05/05 07:04:47;;;;;;;;;;;11.40;68.50;;;;;;4994263;28;88579;-39
2023/05/05 07:07:13;;;;;;;;;;;11.40;68.20;;;;;;4991261;28;87193;-41
2023/05/05 07:09:40;;;;;;;;;;;11.40;68.50;;;;;;4994858;28;87484;-40
2023/05/05 07:12:05;;;;;;;;;;;11.50;68.30;;;;;;4995712;28;88102;-39
2023/05/05 07:14:31;;;;;;;;;;;11.40;68.50;;;;;;4993918;28;88822;-41
2023/05/05 07:16:56;;;;;;;;;;;11.40;68.50;;;;;;4993217;28;88460;-41
2023/05/05 07:19:24;;;;;;;;;;;11.40;68.70;;;;;;4992419;28;86404;-39
2023/05/05 07:21:50;;;;;;;;;;;11.40;69.00;;;;;;4994780;28;87047;-41
2023/05/05 07:24:16;;;;;;;;;;;11.40;68.70;;;;;;4992861;28;88186;-40
2023/05/05 07:26:41;;;;;;;;;;;11.50;68.90;;;;;;4994089;28;88037;-39
2023/05/05 07:29:07;;;;;;;;;;;11.50;68.80;;;;;;4993062;28;88286;-39
2023/05/05 07:31:32;;;;;;;;;;;11.40;68.90;;;;;;4992155;28;88151;-41
2023/05/05 07:33:58;;;;;;;;;;;11.40;68.90;;;;;;4997855;28;87004;-39
2023/05/05 07:36:23;;;;;;;;;;;11.40;69.00;;;;;;4991178;28;88285;-40
2023/05/05 07:38:49;;;;;;;;;;;11.50;68.90;;;;;;4995052;28;87164;-41
2023/05/05 07:41:14;;;;;;;;;;;11.50;68.90;;;;;;4992194;28;87196;-40
2023/05/05 07:43:40;;;;;;;;;;;11.50;69.00;;;;;;4994111;28;86481;-40
2023/05/05 07:46:06;;;;;;;;;;;11.50;69.20;;;;;;4993502;28;87161;-40
2023/05/05 07:48:32;;;;;;;;;;;11.50;69.20;;;;;;4992197;28;86994;-40
2023/05/05 07:50:57;;;;;;;;;;;11.50;69.20;;;;;;4989823;28;88171;-39
2023/05/05 07:53:23;;;;;;;;;;;11.50;69.40;;;;;;4998057;28;87184;-39
2023/05/05 07:55:48;;;;;;;;;;;11.50;69.40;;;;;;4991895;28;87329;-39
2023/05/05 07:58:15;;;;;;;;;;;11.50;69.30;;;;;;4993267;28;86996;-41
2023/05/05 08:00:42;;;;;;;;;;;11.50;69.40;;;;;;4993589;28;87406;-41
2023/05/05 08:03:08;;;;;;;;;;;11.50;69.30;;;;;;4991076;28;89454;-41
2023/05/05 08:05:34;;;;;;;;;;;11.50;69.80;;;;;;4993812;28;87285;-41
2023/05/05 08:07:59;;;;;;;;;;;11.50;69.60;;;;;;4990325;28;88891;-40
2023/05/05 08:10:25;;;;;;;;;;;11.50;69.40;;;;;;4992228;28;87166;-40
2023/05/05 08:12:50;;;;;;;;;;;11.60;69.40;;;;;;4991677;28;87613;-40
2023/05/05 08:15:16;;;;;;;;;;;11.60;69.50;;;;;;4993223;28;88979;-39
2023/05/05 08:17:46;;;;;;;;;;;11.50;69.50;;;;;;4992948;28;87160;-40
2023/05/05 08:20:12;;;;;;;;;;;11.50;69.40;;;;;;4990567;28;87521;-40
2023/05/05 08:22:37;;;;;;;;;;;11.60;69.20;;;;;;4992988;28;88066;-41
2023/05/05 08:25:03;;;;;;;;;;;11.60;69.30;;;;;;4991984;28;87017;-41
2023/05/05 08:27:28;;;;;;;;;;;11.60;69.40;;;;;;4992091;28;87400;-41
2023/05/05 08:29:54;;;;;;;;;;;11.60;69.50;;;;;;4992236;28;88190;-39
2023/05/05 08:32:19;;;;;;;;;;;11.60;69.20;;;;;;4990741;28;86856;-40
2023/05/05 08:34:45;;;;;;;;;;;11.60;69.20;;;;;;4994241;28;86923;-40
2023/05/05 08:37:10;;;;;;;;;;;11.70;69.20;;;;;;4992642;28;88186;-39
2023/05/05 08:39:36;;;;;;;;;;;11.70;69.20;;;;;;4991444;28;87942;-41
2023/05/05 08:42:02;;;;;;;;;;;11.70;69.10;;;;;;4990867;28;87953;-40
2023/05/05 08:44:27;;;;;;;;;;;11.70;69.20;;;;;;4991239;28;87187;-40
2023/05/05 08:46:53;;;;;;;;;;;11.70;69.30;;;;;;4992785;28;87678;-40
2023/05/05 08:49:20;;;;;;;;;;;11.70;69.10;;;;;;4989969;28;88056;-40
2023/05/05 08:51:46;;;;;;;;;;;11.70;69.20;;;;;;4993170;28;87107;-39
2023/05/05 08:54:17;;;;;;;;;;;11.70;69.10;;;;;;4991348;28;87767;-40
2023/05/05 08:56:45;;;;;;;;;;;11.80;69.00;;;;;;4991398;28;87767;-40
2023/05/05 08:59:11;;;;;;;;;;;11.80;69.10;;;;;;4996105;28;87769;-40
2023/05/05 09:01:38;;;;;;;;;;;11.80;69.20;;;;;;4989637;28;88102;-39
2023/05/05 09:04:03;;;;;;;;;;;11.90;69.20;;;;;;4992926;28;88037;-40
2023/05/05 09:06:31;;;;;;;;;;;11.80;68.70;;;;;;4991564;28;88033;-39
2023/05/05 09:08:56;;;;;;;;;;;11.80;68.90;;;;;;4990856;28;89490;-40
2023/05/05 09:11:22;;;;;;;;;;;11.90;69.10;;;;;;4993036;28;86876;-39
2023/05/05 09:13:48;;;;;;;;;;;11.90;69.30;;;;;;4990091;28;87392;-41
2023/05/05 09:16:14;;;;;;;;;;;11.90;68.80;;;;;;4992514;28;88124;-39
2023/05/05 09:18:41;;;;;;;;;;;11.90;69.30;;;;;;4991271;28;87114;-39
2023/05/05 09:21:20;;;;;;;;;;;11.90;69.40;;;;;;4994102;28;89596;-40
2023/05/05 09:24:05;;;;;;;;;;;11.90;69.50;;;;;;4990200;28;87157;-39
2023/05/05 09:26:35;;;;;;;;;;;11.90;69.20;;;;;;4988708;28;87987;-41
2023/05/05 09:29:01;;;;;;;;;;;12.00;69.30;;;;;;4990824;28;88878;-41
2023/05/05 09:31:28;;;;;;;;;;;12.00;69.60;;;;;;4991668;28;87185;-40
2023/05/05 09:33:55;;;;;;;;;;;12.00;69.30;;;;;;4991049;28;87465;-41
2023/05/05 09:36:40;;;;;;;;;;;12.00;69.60;;;;;;4992197;28;88032;-39
2023/05/05 09:39:06;;;;;;;;;;;12.00;69.70;;;;;;4991566;28;87056;-39
2023/05/05 09:41:39;;;;;;;;;;;11.90;69.80;;;;;;4992403;28;88874;-44
2023/05/05 09:44:05;;;;;;;;;;;11.80;71.60;;;;;;4989876;28;87006;-40
2023/05/05 09:46:31;;;;;;;;;;;11.90;72.10;;;;;;4991719;28;88906;-40
2023/05/05 09:49:17;;;;;;;;;;;11.90;73.00;;;;;;4992064;28;87972;-42
2023/05/05 09:51:43;;;;;;;;;;;11.90;72.80;;;;;;4992255;28;87243;-44
2023/05/05 09:54:20;;;;;;;;;;;12.10;73.00;;;;;;4993767;28;88027;-42
2023/05/05 09:56:46;;;;;;;;;;;12.20;72.50;;;;;;4993819;28;87619;-42
2023/05/05 09:59:11;;;;;;;;;;;12.20;72.00;;;;;;4994571;28;87106;-47
2023/05/05 10:01:38;;;;;;;;;;;12.20;72.00;;;;;;4995699;28;87372;-41
2023/05/05 10:04:03;;;;;;;;;;;12.10;72.00;;;;;;4996113;28;88056;-43
2023/05/05 10:06:39;;;;;;;;;;;12.00;72.20;;;;;;4995869;28;87393;-43
2023/05/05 10:09:04;;;;;;;;;;;12.00;72.30;;;;;;4993143;28;87963;-42
2023/05/05 10:11:30;;;;;;;;;;;12.00;72.40;;;;;;4994095;28;86353;-41
2023/05/05 10:13:56;;;;;;;;;;;12.00;72.50;;;;;;4995476;28;87054;-43
2023/05/05 10:16:23;;;;;;;;;;;12.00;73.10;;;;;;4992157;28;89861;-44
2023/05/05 10:18:49;;;;;;;;;;;12.00;72.50;;;;;;4994259;28;88126;-44
2023/05/05 10:21:18;;;;;;;;;;;12.00;72.50;;;;;;4993459;28;88330;-43
2023/05/05 10:24:06;;;;;;;;;;;12.00;72.70;;;;;;4993644;28;88203;-45
2023/05/05 10:26:33;;;;;;;;;;;12.00;72.40;;;;;;4988599;28;87082;-42
2023/05/05 10:29:01;;;;;;;;;;;12.00;72.50;;;;;;4992883;28;88004;-42
2023/05/05 10:31:35;;;;;;;;;;;12.00;72.60;;;;;;4995947;28;87530;-42
2023/05/05 10:34:02;;;;;;;;;;;12.00;72.60;;;;;;4994128;28;87435;-41
2023/05/05 10:36:28;;;;;;;;;;;12.10;72.60;;;;;;4994271;28;88498;-43
2023/05/05 10:38:56;;;;;;;;;;;12.00;72.50;;;;;;4995416;28;87080;-43
2023/05/05 10:41:21;;;;;;;;;;;12.10;72.30;;;;;;4991596;28;87845;-40
2023/05/05 10:43:47;;;;;;;;;;;12.10;72.30;;;;;;4993992;28;88202;-43
2023/05/05 10:46:13;;;;;;;;;;;12.10;72.40;;;;;;4993389;28;87123;-42
2023/05/05 10:48:48;;;;;;;;;;;12.10;72.30;;;;;;4995692;28;87425;-40
2023/05/05 10:51:13;;;;;;;;;;;12.10;72.30;;;;;;4995385;28;87148;-41
2023/05/05 10:53:46;;;;;;;;;;;12.20;72.30;;;;;;4992735;28;88132;-44
2023/05/05 10:56:20;;;;;;;;;;;12.20;72.20;;;;;;4993081;28;88118;-42
2023/05/05 10:58:46;;;;;;;;;;;12.20;72.10;;;;;;4995693;28;87358;-42
2023/05/05 11:01:26;;;;;;;;;;;12.20;72.00;;;;;;4992724;28;87367;-43
2023/05/05 11:04:11;;;;;;;;;;;12.30;72.00;;;;;;4990544;28;87276;-42
2023/05/05 11:06:37;;;;;;;;;;;12.30;71.90;;;;;;4990864;28;87153;-42
2023/05/05 11:09:22;;;;;;;;;;;12.30;71.70;;;;;;4994429;28;88031;-42
2023/05/05 11:12:01;;;;;;;;;;;12.40;71.50;;;;;;4995784;28;89321;-40
2023/05/05 11:14:26;;;;;;;;;;;12.40;71.50;;;;;;4992700;28;87532;-41
2023/05/05 11:16:53;;;;;;;;;;;12.40;71.30;;;;;;4992432;28;88143;-43
2023/05/05 11:19:38;;;;;;;;;;;12.40;71.30;;;;;;4993881;28;88835;-41
2023/05/05 11:22:03;;;;;;;;;;;12.40;71.30;;;;;;4994887;28;87332;-42
2023/05/05 11:24:29;;;;;;;;;;;12.40;71.40;;;;;;4990995;28;88059;-41
2023/05/05 11:26:54;;;;;;;;;;;12.40;71.20;;;;;;4995136;28;86380;-44
2023/05/05 11:29:20;;;;;;;;;;;12.50;71.20;;;;;;4991048;28;88028;-42
2023/05/05 11:32:05;;;;;;;;;;;12.50;71.60;;;;;;4995527;28;87708;-43
2023/05/05 11:34:31;;;;;;;;;;;12.50;71.00;;;;;;4997127;28;88317;-41
2023/05/05 11:37:00;;;;;;;;;;;12.60;70.70;;;;;;4992005;28;88111;-41
2023/05/05 11:39:31;;;;;;;;;;;12.60;70.90;;;;;;4993308;28;87253;-42
2023/05/05 11:42:00;;;;;;;;;;;12.60;70.90;;;;;;4995166;28;87033;-43
2023/05/05 11:44:30;;;;;;;;;;;12.60;70.90;;;;;;4991249;28;87168;-40
2023/05/05 11:46:55;;;;;;;;;;;12.60;70.80;;;;;;4993574;28;87531;-41
2023/05/05 11:49:28;;;;;;;;;;;12.60;70.70;;;;;;4992847;28;87036;-42
2023/05/05 11:51:57;;;;;;;;;;;12.70;70.70;;;;;;4995681;28;87456;-42
2023/05/05 11:54:22;;;;;;;;;;;12.70;70.60;;;;;;4995386;28;87507;-42
2023/05/05 11:56:49;;;;;;;;;;;12.70;70.60;;;;;;4993508;28;88109;-44
2023/05/05 11:59:15;;;;;;;;;;;12.80;70.40;;;;;;4991430;28;87895;-41
2023/05/05 12:01:41;;;;;;;;;;;12.80;70.30;;;;;;4992332;28;88358;-44
2023/05/05 12:04:15;;;;;;;;;;;12.80;70.30;;;;;;4994378;28;89507;-43
2023/05/05 12:06:41;;;;;;;;;;;12.90;70.00;;;;;;4992015;28;87095;-40
2023/05/05 12:09:14;;;;;;;;;;;12.90;70.00;;;;;;4991528;28;87825;-43
2023/05/05 12:11:49;;;;;;;;;;;12.90;70.10;;;;;;4993117;28;87987;-41
2023/05/05 12:14:14;;;;;;;;;;;12.90;70.10;;;;;;4991180;28;87068;-43
2023/05/05 12:16:40;;;;;;;;;;;13.00;70.00;;;;;;4995176;28;87471;-42
2023/05/05 12:19:06;;;;;;;;;;;13.00;69.80;;;;;;4989479;28;87182;-41
2023/05/05 12:21:32;;;;;;;;;;;13.00;69.90;;;;;;4993118;28;88592;-46
2023/05/05 12:23:58;;;;;;;;;;;12.90;69.30;;;;;;4989279;28;88142;-44
2023/05/05 12:26:27;;;;;;;;;;;12.90;68.60;;;;;;4993602;28;87318;-43
2023/05/05 12:28:56;;;;;;;;;;;13.00;68.40;;;;;;4992215;28;88948;-42
2023/05/05 12:31:22;;;;;;;;;;;13.10;68.50;;;;;;4990358;28;88194;-44
2023/05/05 12:33:47;;;;;;;;;;;13.20;68.60;;;;;;4993308;28;87210;-43
2023/05/05 12:36:14;;;;;;;;;;;13.30;68.90;;;;;;4991629;28;87522;-43
2023/05/05 12:38:40;;;;;;;;;;;13.40;69.20;;;;;;4995639;28;88000;-41
2023/05/05 12:41:06;;;;;;;;;;;13.50;68.10;;;;;;4992496;28;89599;-42
2023/05/05 12:43:33;;;;;;;;;;;13.50;67.40;;;;;;4991606;28;86991;-43
2023/05/05 12:46:03;;;;;;;;;;;13.60;67.40;;;;;;4993128;28;87317;-40
2023/05/05 12:48:28;;;;;;;;;;;13.60;67.60;;;;;;4989743;28;88669;-41
2023/05/05 12:50:54;;;;;;;;;;;13.50;68.20;;;;;;4992358;28;89611;-40
2023/05/05 12:53:20;;;;;;;;;;;13.50;68.30;;;;;;4991511;28;87121;-41
2023/05/05 12:55:46;;;;;;;;;;;13.60;68.10;;;;;;4991045;28;89000;-41
2023/05/05 12:58:11;;;;;;;;;;;13.70;67.80;;;;;;4992804;28;87277;-40
2023/05/05 13:00:37;;;;;;;;;;;13.70;67.60;;;;;;4992315;28;87455;-40
2023/05/05 13:03:04;;;;;;;;;;;13.80;67.60;;;;;;4992750;28;88150;-41
2023/05/05 13:05:38;;;;;;;;;;;13.80;67.40;;;;;;4992045;28;86397;-42
2023/05/05 13:08:03;;;;;;;;;;;13.80;67.20;;;;;;4990874;28;88005;-41
2023/05/05 13:10:30;;;;;;;;;;;13.90;67.40;;;;;;4993177;28;88029;-40
2023/05/05 13:12:56;;;;;;;;;;;13.90;67.30;;;;;;4989255;28;88295;-41
2023/05/05 13:15:23;;;;;;;;;;;13.90;67.30;;;;;;4991174;28;89056;-41
2023/05/05 13:17:48;;;;;;;;;;;13.90;67.40;;;;;;4991488;28;88091;-41
2023/05/05 13:20:14;;;;;;;;;;;13.90;67.50;;;;;;4990951;28;87033;-41
2023/05/05 13:22:39;;;;;;;;;;;13.90;67.40;;;;;;4994456;28;88324;-40
2023/05/05 13:25:06;;;;;;;;;;;13.90;67.40;;;;;;4989038;28;87114;-40
2023/05/05 13:27:31;;;;;;;;;;;13.90;67.40;;;;;;4992047;28;88811;-40
2023/05/05 13:29:57;;;;;;;;;;;13.90;67.30;;;;;;4991601;28;87312;-41
2023/05/05 13:32:22;;;;;;;;;;;14.00;67.30;;;;;;4991945;28;87087;-41
2023/05/05 13:34:48;;;;;;;;;;;13.90;67.40;;;;;;4992306;28;87967;-41
2023/05/05 13:37:13;;;;;;;;;;;13.90;67.50;;;;;;4988744;28;88631;-40
2023/05/05 13:39:39;;;;;;;;;;;13.90;67.60;;;;;;4991986;28;87202;-41
2023/05/05 13:42:04;;;;;;;;;;;13.90;67.70;;;;;;4989758;28;87218;-40
2023/05/05 13:44:30;;;;;;;;;;;13.90;67.80;;;;;;4995032;28;88186;-48
2023/05/05 13:46:56;;;;;;;;;;;13.90;67.70;;;;;;4989794;28;87273;-44
2023/05/05 13:49:21;;;;;;;;;;;14.10;66.20;;;;;;4991036;28;89530;-40
2023/05/05 13:51:47;;;;;;;;;;;14.10;66.10;;;;;;4989599;28;87608;-40
2023/05/05 13:54:12;;;;;;;;;;;14.10;65.40;;;;;;4993383;28;87159;-40
2023/05/05 13:56:38;;;;;;;;;;;14.10;65.40;;;;;;4988900;28;87944;-41
2023/05/05 13:59:03;;;;;;;;;;;14.10;66.20;;;;;;4992698;28;87048;-41
2023/05/05 14:01:29;;;;;;;;;;;14.10;66.50;;;;;;4989973;28;87978;-40
2023/05/05 14:03:55;;;;;;;;;;;14.10;66.60;;;;;;4993237;28;88689;-40
2023/05/05 14:06:20;;;;;;;;;;;14.10;66.60;;;;;;4992386;28;87470;-40
2023/05/05 14:08:46;;;;;;;;;;;14.10;66.70;;;;;;4990071;28;87947;-39
2023/05/05 14:11:12;;;;;;;;;;;14.10;64.80;;;;;;4993242;28;87171;-42
2023/05/05 14:13:38;;;;;;;;;;;14.20;65.80;;;;;;4989885;28;87197;-43
2023/05/05 14:16:04;;;;;;;;;;;14.20;65.40;;;;;;4990341;28;87759;-42